sensor_id;sensor_type;location;lat;lon;timestamp;P1;durP1;ratioP1;P2;durP2;ratioP2
31808;SDS011;18379;48.208;-1.518;2022-08-19T00:03:42;49.47;;;46.20;;
31808;SDS011;18379;48.208;-1.518;2022-08-19T00:08:43;43.10;;;40.50;;
31808;SDS011;18379;48.208;-1.518;2022-08-19T00:13:44;42.07;;;39.40;;
31808;SDS011;18379;48.208;-1.518;2022-08-19T00:18:47;41.57;;;39.27;;
31808;SDS011;18379;48.208;-1.518;2022-08-19T00:23:48;41.67;;;39.10;;
31808;SDS011;18379;48.208;-1.518;2022-08-19T00:28:48;41.00;;;38.60;;
31808;SDS011;18379;48.208;-1.518;2022-08-19T00:33:49;40.60;;;38.10;;
31808;SDS011;18379;48.208;-1.518;2022-08-19T00:38:50;40.43;;;38.13;;
31808;SDS011;18379;48.208;-1.518;2022-08-19T00:44:06;40.53;;;38.10;;
31808;SDS011;18379;48.208;-1.518;2022-08-19T00:49:18;42.87;;;40.37;;
31808;SDS011;18379;48.208;-1.518;2022-08-19T00:54:31;42.20;;;39.60;;
31808;SDS011;18379;48.208;-1.518;2022-08-19T00:59:34;43.33;;;40.63;;
31808;SDS011;18379;48.208;-1.518;2022-08-19T01:04:36;43.33;;;40.77;;
31808;SDS011;18379;48.208;-1.518;2022-08-19T01:09:37;43.17;;;40.57;;
31808;SDS011;18379;48.208;-1.518;2022-08-19T01:14:38;43.07;;;40.50;;
31808;SDS011;18379;48.208;-1.518;2022-08-19T01:19:41;47.30;;;44.40;;
31808;SDS011;18379;48.208;-1.518;2022-08-19T01:24:43;43.83;;;40.93;;
31808;SDS011;18379;48.208;-1.518;2022-08-19T01:29:44;41.60;;;39.20;;
31808;SDS011;18379;48.208;-1.518;2022-08-19T01:34:45;44.67;;;42.00;;
31808;SDS011;18379;48.208;-1.518;2022-08-19T01:39:46;39.90;;;37.70;;
31808;SDS011;18379;48.208;-1.518;2022-08-19T01:44:48;41.13;;;38.63;;
31808;SDS011;18379;48.208;-1.518;2022-08-19T01:49:48;39.43;;;37.33;;
31808;SDS011;18379;48.208;-1.518;2022-08-19T01:54:49;39.10;;;37.00;;
31808;SDS011;18379;48.208;-1.518;2022-08-19T01:59:50;39.17;;;37.00;;
31808;SDS011;18379;48.208;-1.518;2022-08-19T02:04:51;39.37;;;37.27;;
31808;SDS011;18379;48.208;-1.518;2022-08-19T02:09:52;39.40;;;37.10;;
31808;SDS011;18379;48.208;-1.518;2022-08-19T02:14:53;39.50;;;37.40;;
31808;SDS011;18379;48.208;-1.518;2022-08-19T02:19:54;39.80;;;37.60;;
31808;SDS011;18379;48.208;-1.518;2022-08-19T02:24:57;41.17;;;38.87;;
31808;SDS011;18379;48.208;-1.518;2022-08-19T02:29:58;41.27;;;38.80;;
31808;SDS011;18379;48.208;-1.518;2022-08-19T02:35:01;41.97;;;39.47;;
31808;SDS011;18379;48.208;-1.518;2022-08-19T02:40:03;43.53;;;40.73;;
31808;SDS011;18379;48.208;-1.518;2022-08-19T02:45:04;42.33;;;39.80;;
31808;SDS011;18379;48.208;-1.518;2022-08-19T02:50:05;42.87;;;40.37;;
31808;SDS011;18379;48.208;-1.518;2022-08-19T02:55:07;42.90;;;40.40;;
31808;SDS011;18379;48.208;-1.518;2022-08-19T03:00:09;42.20;;;39.70;;
31808;SDS011;18379;48.208;-1.518;2022-08-19T03:05:12;41.97;;;39.37;;
31808;SDS011;18379;48.208;-1.518;2022-08-19T03:10:15;42.50;;;39.80;;
31808;SDS011;18379;48.208;-1.518;2022-08-19T03:15:22;39.77;;;37.27;;
31808;SDS011;18379;48.208;-1.518;2022-08-19T03:20:22;40.57;;;38.10;;
31808;SDS011;18379;48.208;-1.518;2022-08-19T03:25:23;40.10;;;37.80;;
31808;SDS011;18379;48.208;-1.518;2022-08-19T03:30:24;40.27;;;38.07;;
31808;SDS011;18379;48.208;-1.518;2022-08-19T03:35:25;40.73;;;38.23;;
31808;SDS011;18379;48.208;-1.518;2022-08-19T03:40:26;41.23;;;38.87;;
31808;SDS011;18379;48.208;-1.518;2022-08-19T03:45:27;40.90;;;38.47;;
31808;SDS011;18379;48.208;-1.518;2022-08-19T03:50:28;47.50;;;44.60;;
31808;SDS011;18379;48.208;-1.518;2022-08-19T03:55:29;43.17;;;40.50;;
31808;SDS011;18379;48.208;-1.518;2022-08-19T04:00:30;48.08;;;45.08;;
31808;SDS011;18379;48.208;-1.518;2022-08-19T04:05:32;44.27;;;41.50;;
31808;SDS011;18379;48.208;-1.518;2022-08-19T04:10:36;43.83;;;41.13;;
31808;SDS011;18379;48.208;-1.518;2022-08-19T04:15:41;48.05;;;45.20;;
31808;SDS011;18379;48.208;-1.518;2022-08-19T04:20:44;44.00;;;41.20;;
31808;SDS011;18379;48.208;-1.518;2022-08-19T04:25:47;40.30;;;38.13;;
31808;SDS011;18379;48.208;-1.518;2022-08-19T04:30:49;41.07;;;38.77;;
31808;SDS011;18379;48.208;-1.518;2022-08-19T04:35:52;39.77;;;37.47;;
31808;SDS011;18379;48.208;-1.518;2022-08-19T04:40:53;39.80;;;37.67;;
31808;SDS011;18379;48.208;-1.518;2022-08-19T04:46:12;42.53;;;40.03;;
31808;SDS011;18379;48.208;-1.518;2022-08-19T04:51:13;42.47;;;39.90;;
31808;SDS011;18379;48.208;-1.518;2022-08-19T04:56:16;41.30;;;38.90;;
31808;SDS011;18379;48.208;-1.518;2022-08-19T05:01:26;40.60;;;38.13;;
31808;SDS011;18379;48.208;-1.518;2022-08-19T05:06:32;42.43;;;39.87;;
31808;SDS011;18379;48.208;-1.518;2022-08-19T05:11:35;39.50;;;37.27;;
31808;SDS011;18379;48.208;-1.518;2022-08-19T05:16:40;44.00;;;41.17;;
31808;SDS011;18379;48.208;-1.518;2022-08-19T05:21:41;42.90;;;40.17;;
31808;SDS011;18379;48.208;-1.518;2022-08-19T05:27:01;42.50;;;39.90;;
31808;SDS011;18379;48.208;-1.518;2022-08-19T05:32:05;42.83;;;40.27;;
31808;SDS011;18379;48.208;-1.518;2022-08-19T05:37:10;43.23;;;40.63;;
31808;SDS011;18379;48.208;-1.518;2022-08-19T05:42:11;43.30;;;40.50;;
31808;SDS011;18379;48.208;-1.518;2022-08-19T05:47:13;43.73;;;40.97;;
31808;SDS011;18379;48.208;-1.518;2022-08-19T05:52:15;42.63;;;40.00;;
31808;SDS011;18379;48.208;-1.518;2022-08-19T05:57:16;41.57;;;38.87;;
31808;SDS011;18379;48.208;-1.518;2022-08-19T06:02:16;41.20;;;38.80;;
31808;SDS011;18379;48.208;-1.518;2022-08-19T06:07:17;40.30;;;38.10;;
31808;SDS011;18379;48.208;-1.518;2022-08-19T06:12:19;41.00;;;38.67;;
31808;SDS011;18379;48.208;-1.518;2022-08-19T06:17:20;40.80;;;38.50;;
31808;SDS011;18379;48.208;-1.518;2022-08-19T06:22:25;40.67;;;38.37;;
31808;SDS011;18379;48.208;-1.518;2022-08-19T06:27:26;41.07;;;38.67;;
31808;SDS011;18379;48.208;-1.518;2022-08-19T06:32:29;42.33;;;39.70;;
31808;SDS011;18379;48.208;-1.518;2022-08-19T06:37:30;42.67;;;39.97;;
31808;SDS011;18379;48.208;-1.518;2022-08-19T06:42:31;51.90;;;48.10;;
31808;SDS011;18379;48.208;-1.518;2022-08-19T06:47:32;49.40;;;45.93;;
31808;SDS011;18379;48.208;-1.518;2022-08-19T06:52:34;42.93;;;40.27;;
31808;SDS011;18379;48.208;-1.518;2022-08-19T06:57:35;43.20;;;40.60;;
31808;SDS011;18379;48.208;-1.518;2022-08-19T07:02:36;43.07;;;40.47;;
31808;SDS011;18379;48.208;-1.518;2022-08-19T07:07:37;44.77;;;41.77;;
31808;SDS011;18379;48.208;-1.518;2022-08-19T07:12:38;50.10;;;46.40;;
31808;SDS011;18379;48.208;-1.518;2022-08-19T07:17:40;43.43;;;40.53;;
31808;SDS011;18379;48.208;-1.518;2022-08-19T07:22:43;47.83;;;44.53;;
31808;SDS011;18379;48.208;-1.518;2022-08-19T07:27:45;46.27;;;43.20;;
31808;SDS011;18379;48.208;-1.518;2022-08-19T07:32:48;41.80;;;39.20;;
31808;SDS011;18379;48.208;-1.518;2022-08-19T07:37:51;42.30;;;39.53;;
31808;SDS011;18379;48.208;-1.518;2022-08-19T07:42:52;41.83;;;39.30;;
31808;SDS011;18379;48.208;-1.518;2022-08-19T07:47:53;41.57;;;39.07;;
31808;SDS011;18379;48.208;-1.518;2022-08-19T07:52:54;40.93;;;38.63;;
31808;SDS011;18379;48.208;-1.518;2022-08-19T07:57:57;41.40;;;39.00;;
31808;SDS011;18379;48.208;-1.518;2022-08-19T08:02:58;41.57;;;38.93;;
31808;SDS011;18379;48.208;-1.518;2022-08-19T08:07:58;42.87;;;40.17;;
31808;SDS011;18379;48.208;-1.518;2022-08-19T08:13:18;42.33;;;39.73;;
31808;SDS011;18379;48.208;-1.518;2022-08-19T08:18:18;41.50;;;39.03;;
31808;SDS011;18379;48.208;-1.518;2022-08-19T08:23:20;42.00;;;39.33;;
31808;SDS011;18379;48.208;-1.518;2022-08-19T08:28:27;41.67;;;39.27;;
31808;SDS011;18379;48.208;-1.518;2022-08-19T08:33:28;42.00;;;39.27;;
31808;SDS011;18379;48.208;-1.518;2022-08-19T08:38:31;44.50;;;41.40;;
31808;SDS011;18379;48.208;-1.518;2022-08-19T08:43:38;43.80;;;40.90;;
31808;SDS011;18379;48.208;-1.518;2022-08-19T08:48:58;44.30;;;41.40;;
31808;SDS011;18379;48.208;-1.518;2022-08-19T08:54:00;43.93;;;40.83;;
31808;SDS011;18379;48.208;-1.518;2022-08-19T08:59:22;55.23;;;51.13;;
31808;SDS011;18379;48.208;-1.518;2022-08-19T09:04:33;46.77;;;43.43;;
31808;SDS011;18379;48.208;-1.518;2022-08-19T09:09:38;48.40;;;45.13;;
31808;SDS011;18379;48.208;-1.518;2022-08-19T09:19:50;42.90;;;40.33;;
31808;SDS011;18379;48.208;-1.518;2022-08-19T09:24:56;41.97;;;39.50;;
31808;SDS011;18379;48.208;-1.518;2022-08-19T09:29:57;41.63;;;39.13;;
31808;SDS011;18379;48.208;-1.518;2022-08-19T09:34:59;42.27;;;39.53;;
31808;SDS011;18379;48.208;-1.518;2022-08-19T09:40:00;43.87;;;41.17;;
31808;SDS011;18379;48.208;-1.518;2022-08-19T09:45:01;44.57;;;41.67;;
31808;SDS011;18379;48.208;-1.518;2022-08-19T09:50:04;44.70;;;41.93;;
31808;SDS011;18379;48.208;-1.518;2022-08-19T09:55:08;44.70;;;41.93;;
31808;SDS011;18379;48.208;-1.518;2022-08-19T10:00:10;44.57;;;41.77;;
31808;SDS011;18379;48.208;-1.518;2022-08-19T10:05:11;44.80;;;41.80;;
31808;SDS011;18379;48.208;-1.518;2022-08-19T10:10:30;44.27;;;41.47;;
31808;SDS011;18379;48.208;-1.518;2022-08-19T10:15:35;45.77;;;42.67;;
31808;SDS011;18379;48.208;-1.518;2022-08-19T10:20:39;44.43;;;41.63;;
31808;SDS011;18379;48.208;-1.518;2022-08-19T10:25:41;46.50;;;43.53;;
31808;SDS011;18379;48.208;-1.518;2022-08-19T10:30:43;45.40;;;42.50;;
31808;SDS011;18379;48.208;-1.518;2022-08-19T10:35:44;46.83;;;43.57;;
31808;SDS011;18379;48.208;-1.518;2022-08-19T10:40:46;44.87;;;42.07;;
31808;SDS011;18379;48.208;-1.518;2022-08-19T10:45:54;44.17;;;41.53;;
31808;SDS011;18379;48.208;-1.518;2022-08-19T10:50:59;43.77;;;41.23;;
31808;SDS011;18379;48.208;-1.518;2022-08-19T10:56:18;43.07;;;40.43;;
31808;SDS011;18379;48.208;-1.518;2022-08-19T11:01:37;46.30;;;43.27;;
31808;SDS011;18379;48.208;-1.518;2022-08-19T11:06:41;44.13;;;41.53;;
31808;SDS011;18379;48.208;-1.518;2022-08-19T11:11:43;45.83;;;42.87;;
31808;SDS011;18379;48.208;-1.518;2022-08-19T11:16:44;44.80;;;42.00;;
31808;SDS011;18379;48.208;-1.518;2022-08-19T11:21:46;44.47;;;41.70;;
31808;SDS011;18379;48.208;-1.518;2022-08-19T11:26:49;43.57;;;40.77;;
31808;SDS011;18379;48.208;-1.518;2022-08-19T11:31:52;42.20;;;39.70;;
31808;SDS011;18379;48.208;-1.518;2022-08-19T11:36:54;42.93;;;40.40;;
31808;SDS011;18379;48.208;-1.518;2022-08-19T11:41:59;42.43;;;39.83;;
31808;SDS011;18379;48.208;-1.518;2022-08-19T11:47:03;44.60;;;41.80;;
31808;SDS011;18379;48.208;-1.518;2022-08-19T11:52:04;44.10;;;41.40;;
31808;SDS011;18379;48.208;-1.518;2022-08-19T11:57:05;43.83;;;41.13;;
31808;SDS011;18379;48.208;-1.518;2022-08-19T12:02:06;45.27;;;42.57;;
31808;SDS011;18379;48.208;-1.518;2022-08-19T12:07:08;44.07;;;41.47;;
31808;SDS011;18379;48.208;-1.518;2022-08-19T12:12:11;44.00;;;41.40;;
31808;SDS011;18379;48.208;-1.518;2022-08-19T12:17:12;44.00;;;41.30;;
31808;SDS011;18379;48.208;-1.518;2022-08-19T12:22:13;45.87;;;42.80;;
31808;SDS011;18379;48.208;-1.518;2022-08-19T12:27:14;43.43;;;40.80;;
31808;SDS011;18379;48.208;-1.518;2022-08-19T12:32:15;43.87;;;41.23;;
31808;SDS011;18379;48.208;-1.518;2022-08-19T12:37:16;42.77;;;40.13;;
31808;SDS011;18379;48.208;-1.518;2022-08-19T12:42:18;42.77;;;40.23;;
31808;SDS011;18379;48.208;-1.518;2022-08-19T12:47:19;41.27;;;38.87;;
31808;SDS011;18379;48.208;-1.518;2022-08-19T12:52:23;41.07;;;38.77;;
31808;SDS011;18379;48.208;-1.518;2022-08-19T12:57:28;41.30;;;39.10;;
31808;SDS011;18379;48.208;-1.518;2022-08-19T13:02:35;43.63;;;41.13;;
31808;SDS011;18379;48.208;-1.518;2022-08-19T13:07:38;44.93;;;42.30;;
31808;SDS011;18379;48.208;-1.518;2022-08-19T13:12:41;44.03;;;41.37;;
31808;SDS011;18379;48.208;-1.518;2022-08-19T13:17:43;44.03;;;41.53;;
31808;SDS011;18379;48.208;-1.518;2022-08-19T13:22:49;41.70;;;39.50;;
31808;SDS011;18379;48.208;-1.518;2022-08-19T13:27:52;41.30;;;39.17;;
31808;SDS011;18379;48.208;-1.518;2022-08-19T13:32:55;40.80;;;38.70;;
31808;SDS011;18379;48.208;-1.518;2022-08-19T13:38:12;43.23;;;40.80;;
31808;SDS011;18379;48.208;-1.518;2022-08-19T13:43:17;43.10;;;40.60;;
31808;SDS011;18379;48.208;-1.518;2022-08-19T13:48:22;40.37;;;38.17;;
31808;SDS011;18379;48.208;-1.518;2022-08-19T13:53:27;39.67;;;37.67;;
31808;SDS011;18379;48.208;-1.518;2022-08-19T13:58:28;39.60;;;37.47;;
31808;SDS011;18379;48.208;-1.518;2022-08-19T14:03:30;39.93;;;37.80;;
31808;SDS011;18379;48.208;-1.518;2022-08-19T14:08:31;41.13;;;38.87;;
31808;SDS011;18379;48.208;-1.518;2022-08-19T14:13:33;41.43;;;39.13;;
31808;SDS011;18379;48.208;-1.518;2022-08-19T14:18:41;41.27;;;39.03;;
31808;SDS011;18379;48.208;-1.518;2022-08-19T14:23:43;44.87;;;42.00;;
31808;SDS011;18379;48.208;-1.518;2022-08-19T14:28:44;46.07;;;43.20;;
31808;SDS011;18379;48.208;-1.518;2022-08-19T14:33:46;44.73;;;41.90;;
31808;SDS011;18379;48.208;-1.518;2022-08-19T14:38:48;39.47;;;37.33;;
31808;SDS011;18379;48.208;-1.518;2022-08-19T14:43:50;38.87;;;36.80;;
31808;SDS011;18379;48.208;-1.518;2022-08-19T14:48:53;38.47;;;36.47;;
31808;SDS011;18379;48.208;-1.518;2022-08-19T14:53:55;38.63;;;36.63;;
31808;SDS011;18379;48.208;-1.518;2022-08-19T14:58:56;38.67;;;36.70;;
31808;SDS011;18379;48.208;-1.518;2022-08-19T15:04:01;40.73;;;38.33;;
31808;SDS011;18379;48.208;-1.518;2022-08-19T15:09:03;41.83;;;39.33;;
31808;SDS011;18379;48.208;-1.518;2022-08-19T15:14:04;43.13;;;40.37;;
31808;SDS011;18379;48.208;-1.518;2022-08-19T15:19:06;42.53;;;40.00;;
31808;SDS011;18379;48.208;-1.518;2022-08-19T15:24:07;42.43;;;39.87;;
31808;SDS011;18379;48.208;-1.518;2022-08-19T15:29:12;42.00;;;39.33;;
31808;SDS011;18379;48.208;-1.518;2022-08-19T15:34:15;41.73;;;39.23;;
31808;SDS011;18379;48.208;-1.518;2022-08-19T15:39:17;41.43;;;38.87;;
31808;SDS011;18379;48.208;-1.518;2022-08-19T15:44:19;39.53;;;37.07;;
31808;SDS011;18379;48.208;-1.518;2022-08-19T15:49:21;39.63;;;37.03;;
31808;SDS011;18379;48.208;-1.518;2022-08-19T15:54:22;40.07;;;37.10;;
31808;SDS011;18379;48.208;-1.518;2022-08-19T15:59:23;39.77;;;37.17;;
31808;SDS011;18379;48.208;-1.518;2022-08-19T16:04:43;42.77;;;39.63;;
31808;SDS011;18379;48.208;-1.518;2022-08-19T16:10:03;42.90;;;39.97;;
31808;SDS011;18379;48.208;-1.518;2022-08-19T16:15:06;42.67;;;39.63;;
31808;SDS011;18379;48.208;-1.518;2022-08-19T16:20:08;43.00;;;39.83;;
31808;SDS011;18379;48.208;-1.518;2022-08-19T16:25:10;43.90;;;40.80;;
31808;SDS011;18379;48.208;-1.518;2022-08-19T16:30:11;41.90;;;38.90;;
31808;SDS011;18379;48.208;-1.518;2022-08-19T16:35:12;42.37;;;39.53;;
31808;SDS011;18379;48.208;-1.518;2022-08-19T16:40:13;43.53;;;40.00;;
31808;SDS011;18379;48.208;-1.518;2022-08-19T16:45:14;42.90;;;39.90;;
31808;SDS011;18379;48.208;-1.518;2022-08-19T16:50:18;41.33;;;38.20;;
31808;SDS011;18379;48.208;-1.518;2022-08-19T16:55:20;40.87;;;38.07;;
31808;SDS011;18379;48.208;-1.518;2022-08-19T17:00:21;39.80;;;37.40;;
31808;SDS011;18379;48.208;-1.518;2022-08-19T17:05:22;39.67;;;36.97;;
31808;SDS011;18379;48.208;-1.518;2022-08-19T17:10:23;40.03;;;37.10;;
31808;SDS011;18379;48.208;-1.518;2022-08-19T17:15:24;40.20;;;37.40;;
31808;SDS011;18379;48.208;-1.518;2022-08-19T17:20:25;40.60;;;37.70;;
31808;SDS011;18379;48.208;-1.518;2022-08-19T17:25:27;40.10;;;37.40;;
31808;SDS011;18379;48.208;-1.518;2022-08-19T17:30:30;41.23;;;38.27;;
31808;SDS011;18379;48.208;-1.518;2022-08-19T17:35:31;41.50;;;38.50;;
31808;SDS011;18379;48.208;-1.518;2022-08-19T17:40:33;42.40;;;38.97;;
31808;SDS011;18379;48.208;-1.518;2022-08-19T17:45:35;44.80;;;41.40;;
31808;SDS011;18379;48.208;-1.518;2022-08-19T17:50:37;42.53;;;39.63;;
31808;SDS011;18379;48.208;-1.518;2022-08-19T17:55:39;42.47;;;39.53;;
31808;SDS011;18379;48.208;-1.518;2022-08-19T18:00:40;42.73;;;39.17;;
31808;SDS011;18379;48.208;-1.518;2022-08-19T18:05:41;42.27;;;39.40;;
31808;SDS011;18379;48.208;-1.518;2022-08-19T18:10:43;41.97;;;38.67;;
31808;SDS011;18379;48.208;-1.518;2022-08-19T18:15:43;42.53;;;39.57;;
31808;SDS011;18379;48.208;-1.518;2022-08-19T18:20:44;44.67;;;41.27;;
31808;SDS011;18379;48.208;-1.518;2022-08-19T18:25:46;40.47;;;37.13;;
31808;SDS011;18379;48.208;-1.518;2022-08-19T18:30:53;42.63;;;39.47;;
31808;SDS011;18379;48.208;-1.518;2022-08-19T18:35:55;41.67;;;38.67;;
31808;SDS011;18379;48.208;-1.518;2022-08-19T18:40:59;42.07;;;38.97;;
31808;SDS011;18379;48.208;-1.518;2022-08-19T18:46:20;39.60;;;36.87;;
31808;SDS011;18379;48.208;-1.518;2022-08-19T18:51:40;49.10;;;44.90;;
31808;SDS011;18379;48.208;-1.518;2022-08-19T18:56:43;43.13;;;39.90;;
31808;SDS011;18379;48.208;-1.518;2022-08-19T19:01:46;39.83;;;36.97;;
31808;SDS011;18379;48.208;-1.518;2022-08-19T19:06:49;39.27;;;36.77;;
31808;SDS011;18379;48.208;-1.518;2022-08-19T19:11:54;39.70;;;36.87;;
31808;SDS011;18379;48.208;-1.518;2022-08-19T19:16:58;39.93;;;37.17;;
31808;SDS011;18379;48.208;-1.518;2022-08-19T19:22:01;40.80;;;38.00;;
31808;SDS011;18379;48.208;-1.518;2022-08-19T19:27:03;41.77;;;38.80;;
31808;SDS011;18379;48.208;-1.518;2022-08-19T19:32:10;42.77;;;39.67;;
31808;SDS011;18379;48.208;-1.518;2022-08-19T19:37:20;38.60;;;36.20;;
31808;SDS011;18379;48.208;-1.518;2022-08-19T19:42:22;38.90;;;36.30;;
31808;SDS011;18379;48.208;-1.518;2022-08-19T19:47:23;39.53;;;36.50;;
31808;SDS011;18379;48.208;-1.518;2022-08-19T19:52:24;39.60;;;36.70;;
31808;SDS011;18379;48.208;-1.518;2022-08-19T19:57:25;39.23;;;36.67;;
31808;SDS011;18379;48.208;-1.518;2022-08-19T20:02:29;40.30;;;36.90;;
31808;SDS011;18379;48.208;-1.518;2022-08-19T20:07:30;40.00;;;37.20;;
31808;SDS011;18379;48.208;-1.518;2022-08-19T20:12:49;39.57;;;36.37;;
31808;SDS011;18379;48.208;-1.518;2022-08-19T20:17:53;39.63;;;36.37;;
31808;SDS011;18379;48.208;-1.518;2022-08-19T20:22:54;39.50;;;36.43;;
31808;SDS011;18379;48.208;-1.518;2022-08-19T20:27:55;39.27;;;36.43;;
31808;SDS011;18379;48.208;-1.518;2022-08-19T20:32:56;38.63;;;36.03;;
31808;SDS011;18379;48.208;-1.518;2022-08-19T20:37:59;39.47;;;36.53;;
31808;SDS011;18379;48.208;-1.518;2022-08-19T20:43:00;39.77;;;36.83;;
31808;SDS011;18379;48.208;-1.518;2022-08-19T20:48:02;40.47;;;37.57;;
31808;SDS011;18379;48.208;-1.518;2022-08-19T20:53:11;40.77;;;37.80;;
31808;SDS011;18379;48.208;-1.518;2022-08-19T20:58:17;44.10;;;40.60;;
31808;SDS011;18379;48.208;-1.518;2022-08-19T21:03:22;38.83;;;36.13;;
31808;SDS011;18379;48.208;-1.518;2022-08-19T21:08:26;39.40;;;36.17;;
31808;SDS011;18379;48.208;-1.518;2022-08-19T21:13:27;38.73;;;36.13;;
31808;SDS011;18379;48.208;-1.518;2022-08-19T21:18:29;39.57;;;36.40;;
31808;SDS011;18379;48.208;-1.518;2022-08-19T21:23:30;39.47;;;36.63;;
31808;SDS011;18379;48.208;-1.518;2022-08-19T21:28:31;40.93;;;37.57;;
31808;SDS011;18379;48.208;-1.518;2022-08-19T21:33:32;41.80;;;38.17;;
31808;SDS011;18379;48.208;-1.518;2022-08-19T21:38:33;41.93;;;38.73;;
31808;SDS011;18379;48.208;-1.518;2022-08-19T21:43:34;42.93;;;39.63;;
31808;SDS011;18379;48.208;-1.518;2022-08-19T21:48:36;47.47;;;43.87;;
31808;SDS011;18379;48.208;-1.518;2022-08-19T21:53:36;44.93;;;41.43;;
31808;SDS011;18379;48.208;-1.518;2022-08-19T21:58:37;46.73;;;43.00;;
31808;SDS011;18379;48.208;-1.518;2022-08-19T22:03:39;44.90;;;41.73;;
31808;SDS011;18379;48.208;-1.518;2022-08-19T22:08:42;42.03;;;38.70;;
31808;SDS011;18379;48.208;-1.518;2022-08-19T22:13:43;41.77;;;38.47;;
31808;SDS011;18379;48.208;-1.518;2022-08-19T22:18:44;40.80;;;37.70;;
31808;SDS011;18379;48.208;-1.518;2022-08-19T22:23:46;51.60;;;46.83;;
31808;SDS011;18379;48.208;-1.518;2022-08-19T22:28:47;40.30;;;37.17;;
31808;SDS011;18379;48.208;-1.518;2022-08-19T22:33:48;38.83;;;36.00;;
31808;SDS011;18379;48.208;-1.518;2022-08-19T22:38:51;38.80;;;35.60;;
31808;SDS011;18379;48.208;-1.518;2022-08-19T22:43:53;38.30;;;35.37;;
31808;SDS011;18379;48.208;-1.518;2022-08-19T22:48:53;39.03;;;35.87;;
31808;SDS011;18379;48.208;-1.518;2022-08-19T22:53:54;38.27;;;35.43;;
31808;SDS011;18379;48.208;-1.518;2022-08-19T22:58:56;39.07;;;36.33;;
31808;SDS011;18379;48.208;-1.518;2022-08-19T23:03:57;39.83;;;36.67;;
31808;SDS011;18379;48.208;-1.518;2022-08-19T23:08:59;39.00;;;35.97;;
31808;SDS011;18379;48.208;-1.518;2022-08-19T23:14:01;39.27;;;36.33;;
31808;SDS011;18379;48.208;-1.518;2022-08-19T23:19:03;41.63;;;38.20;;
31808;SDS011;18379;48.208;-1.518;2022-08-19T23:24:04;40.37;;;37.50;;
31808;SDS011;18379;48.208;-1.518;2022-08-19T23:29:05;41.57;;;38.40;;
31808;SDS011;18379;48.208;-1.518;2022-08-19T23:34:24;38.13;;;35.23;;
31808;SDS011;18379;48.208;-1.518;2022-08-19T23:39:25;39.23;;;36.17;;
31808;SDS011;18379;48.208;-1.518;2022-08-19T23:44:28;39.87;;;36.03;;
31808;SDS011;18379;48.208;-1.518;2022-08-19T23:49:29;39.50;;;36.33;;
31808;SDS011;18379;48.208;-1.518;2022-08-19T23:54:30;39.77;;;36.50;;
31808;SDS011;18379;48.208;-1.518;2022-08-19T23:59:31;41.33;;;38.03;;
